Time;durP1;ratioP1;P1;durP2;ratioP2;P2;SDS_P1;SDS_P2;PMS_P1;PMS_P2;Temp;Humidity;BMP_temperature;BMP_pressure;BME280_temperature;BME280_humidity;BME280_pressure;Samples;Min_cycle;Max_cycle;Signal;HPM_P1;HPM_P2
2023/05/13 00:00:10;;;;;;;3.70;3.50;;;11.70;99.90;;;;;;5011224;28;20973;-72
2023/05/13 00:02:35;;;;;;;3.37;3.17;;;11.70;99.90;;;;;;5010097;28;20729;-73
2023/05/13 00:05:01;;;;;;;3.20;3.00;;;11.70;99.90;;;;;;5011015;28;20441;-74
2023/05/13 00:07:27;;;;;;;4.00;3.60;;;11.70;99.90;;;;;;5011266;28;20182;-72
2023/05/13 00:09:52;;;;;;;3.87;3.60;;;11.60;99.90;;;;;;5011150;28;20310;-73
2023/05/13 00:12:18;;;;;;;7.30;3.20;;;11.50;99.90;;;;;;5010285;28;20457;-72
2023/05/13 00:14:43;;;;;;;4.03;3.73;;;11.50;99.90;;;;;;5011497;28;20191;-73
2023/05/13 00:17:09;;;;;;;3.80;3.20;;;11.50;99.90;;;;;;5010137;28;20194;-72
2023/05/13 00:19:35;;;;;;;3.27;3.07;;;11.50;99.90;;;;;;5011325;28;20285;-73
2023/05/13 00:22:00;;;;;;;3.37;3.17;;;11.50;99.90;;;;;;5006938;28;20206;-74
2023/05/13 00:24:26;;;;;;;4.30;3.90;;;11.50;99.90;;;;;;5009889;28;20546;-72
2023/05/13 00:26:52;;;;;;;3.20;3.00;;;11.50;99.90;;;;;;5011223;28;20178;-73
2023/05/13 00:29:17;;;;;;;4.13;3.83;;;11.40;99.90;;;;;;5011598;28;20217;-71
2023/05/13 00:31:43;;;;;;;3.30;3.00;;;11.40;99.90;;;;;;5007141;28;20256;-73
2023/05/13 00:34:08;;;;;;;5.43;4.93;;;11.40;99.90;;;;;;5008406;28;20199;-73
2023/05/13 00:36:37;;;;;;;4.13;3.83;;;11.50;99.90;;;;;;5008789;28;20514;-73
2023/05/13 00:39:02;;;;;;;3.73;3.53;;;11.50;99.90;;;;;;5010007;28;20263;-72
2023/05/13 00:41:28;;;;;;;4.40;3.90;;;11.50;99.90;;;;;;5009188;28;20496;-73
2023/05/13 00:43:57;;;;;;;3.70;3.40;;;11.50;99.90;;;;;;5009011;28;20530;-73
2023/05/13 00:46:23;;;;;;;4.27;4.00;;;11.50;99.90;;;;;;4991058;28;20201;-74
2023/05/13 00:48:49;;;;;;;3.67;3.40;;;11.50;99.90;;;;;;5010291;28;20799;-73
2023/05/13 00:51:15;;;;;;;4.53;4.20;;;11.50;99.90;;;;;;5008966;28;20967;-71
2023/05/13 00:53:41;;;;;;;6.20;3.77;;;11.50;99.90;;;;;;5007933;28;20498;-73
2023/05/13 00:56:07;;;;;;;4.60;3.70;;;11.50;99.90;;;;;;5010125;28;20182;-73
2023/05/13 00:58:35;;;;;;;5.80;3.60;;;11.50;99.90;;;;;;5009389;28;20440;-73
2023/05/13 02:31:40;;;;;;;3.77;3.43;;;10.10;99.90;;;;;;5578448;23;20503;-82
2023/05/13 02:34:05;;;;;;;2.93;2.73;;;10.10;99.90;;;;;;5028418;28;20463;-82
2023/05/13 02:36:31;;;;;;;3.70;3.40;;;10.10;99.90;;;;;;5028838;28;20449;-82
2023/05/13 02:38:56;;;;;;;3.03;2.83;;;10.10;99.90;;;;;;5031690;28;20661;-82
2023/05/13 02:41:23;;;;;;;4.63;4.23;;;10.10;99.90;;;;;;5024025;28;20226;-82
2023/05/13 02:43:48;;;;;;;4.20;3.90;;;10.20;99.90;;;;;;5015021;28;20218;-82
2023/05/13 02:46:14;;;;;;;3.83;3.47;;;10.20;99.90;;;;;;5018381;28;20434;-82
2023/05/13 02:48:39;;;;;;;3.93;3.73;;;10.10;99.90;;;;;;5022180;28;20666;-82
2023/05/13 02:51:05;;;;;;;5.63;3.93;;;10.20;99.90;;;;;;5022131;28;20210;-83
2023/05/13 02:53:30;;;;;;;3.87;3.57;;;10.20;99.90;;;;;;4997708;28;20283;-82
2023/05/13 02:55:56;;;;;;;3.27;3.07;;;10.20;99.90;;;;;;5005372;28;20194;-82
2023/05/13 02:58:21;;;;;;;4.20;3.90;;;10.20;99.90;;;;;;5018500;28;20199;-82
2023/05/13 03:00:47;;;;;;;4.57;4.17;;;10.30;99.90;;;;;;5021613;28;20224;-82
2023/05/13 03:03:12;;;;;;;5.20;4.37;;;10.20;99.90;;;;;;5022036;28;20187;-82
2023/05/13 03:05:38;;;;;;;3.93;3.60;;;10.20;99.90;;;;;;5024859;28;20197;-83
2023/05/13 03:08:04;;;;;;;4.07;3.83;;;10.20;99.90;;;;;;5030961;28;20186;-82
2023/05/13 03:10:33;;;;;;;4.20;3.73;;;10.20;99.90;;;;;;5033413;28;21937;-82
2023/05/13 03:12:59;;;;;;;5.13;3.97;;;10.20;99.90;;;;;;5022820;28;20190;-83
2023/05/13 03:15:25;;;;;;;4.20;3.80;;;10.20;99.90;;;;;;5024713;28;20441;-82
2023/05/13 03:17:51;;;;;;;4.37;3.97;;;10.20;99.90;;;;;;5004103;28;20254;-83
2023/05/13 03:20:16;;;;;;;4.50;4.20;;;10.30;99.90;;;;;;5021492;28;20515;-82
2023/05/13 03:22:42;;;;;;;4.07;3.67;;;10.30;99.90;;;;;;5018236;28;20187;-82
2023/05/13 03:25:07;;;;;;;3.70;3.40;;;10.30;99.90;;;;;;5039421;28;20187;-82
2023/05/13 03:27:33;;;;;;;4.13;3.83;;;10.30;99.90;;;;;;5024505;28;20214;-83
2023/05/13 03:29:59;;;;;;;3.30;3.10;;;10.30;99.90;;;;;;5021424;28;20194;-82
2023/05/13 03:32:29;;;;;;;3.70;3.40;;;10.30;99.90;;;;;;5023182;28;20218;-83
2023/05/13 03:34:59;;;;;;;3.77;3.57;;;10.30;99.90;;;;;;5030186;28;20712;-82
2023/05/13 03:37:25;;;;;;;4.60;4.30;;;10.30;99.90;;;;;;5018103;28;20489;-82
2023/05/13 03:39:51;;;;;;;3.93;3.63;;;10.30;99.90;;;;;;5005339;28;20473;-82
2023/05/13 03:42:17;;;;;;;4.27;3.37;;;10.30;99.90;;;;;;5004602;28;20209;-83
2023/05/13 03:44:42;;;;;;;4.10;3.80;;;10.30;99.90;;;;;;5023720;28;20183;-83
2023/05/13 03:47:11;;;;;;;5.30;3.63;;;10.30;99.90;;;;;;5023289;28;20190;-82
2023/05/13 03:49:36;;;;;;;5.00;4.00;;;10.30;99.90;;;;;;5020509;28;20207;-83
2023/05/13 03:52:02;;;;;;;4.23;3.93;;;10.30;99.90;;;;;;5017688;28;20465;-80
2023/05/13 03:54:30;;;;;;;3.70;3.40;;;10.30;99.90;;;;;;5020344;28;20193;-80
2023/05/13 03:56:56;;;;;;;3.50;3.30;;;10.30;99.90;;;;;;5019965;28;20666;-80
2023/05/13 03:59:22;;;;;;;5.80;3.73;;;10.30;99.90;;;;;;5020894;28;20524;-80
2023/05/13 04:01:51;;;;;;;3.90;3.60;;;10.30;99.90;;;;;;5015856;28;20685;-81
2023/05/13 04:04:17;;;;;;;3.80;3.50;;;10.30;99.90;;;;;;5000556;28;20437;-81
2023/05/13 04:06:42;;;;;;;5.10;3.40;;;10.30;99.90;;;;;;5014131;28;20445;-81
2023/05/13 04:09:11;;;;;;;5.20;3.60;;;10.30;99.90;;;;;;5025345;28;20281;-80
2023/05/13 04:11:36;;;;;;;5.40;3.20;;;10.40;99.90;;;;;;5010432;28;20214;-81
2023/05/13 04:14:02;;;;;;;4.70;4.00;;;10.40;99.90;;;;;;5013270;28;20953;-81
2023/05/13 04:16:30;;;;;;;3.50;3.20;;;10.40;99.90;;;;;;5015778;28;20198;-81
2023/05/13 04:18:56;;;;;;;4.63;3.00;;;10.40;99.90;;;;;;5014981;28;20441;-81
2023/05/13 04:21:21;;;;;;;3.50;3.20;;;10.40;99.90;;;;;;5013918;28;20536;-81
2023/05/13 04:23:49;;;;;;;4.83;3.33;;;10.50;99.90;;;;;;5013554;28;20182;-81
2023/05/13 04:26:15;;;;;;;3.57;3.23;;;10.50;99.90;;;;;;5017005;28;20194;-81
2023/05/13 04:28:41;;;;;;;3.33;3.03;;;10.50;99.90;;;;;;5025788;28;21001;-80
2023/05/13 04:31:06;;;;;;;3.20;3.00;;;10.50;99.90;;;;;;5024038;28;20253;-81
2023/05/13 04:33:33;;;;;;;3.80;3.03;;;10.50;99.90;;;;;;5016436;28;20194;-81
2023/05/13 04:35:59;;;;;;;4.70;3.67;;;10.50;99.90;;;;;;5016411;28;20453;-81
2023/05/13 04:38:24;;;;;;;4.83;3.37;;;10.40;99.90;;;;;;5017145;28;20190;-81
2023/05/13 04:40:51;;;;;;;3.67;3.40;;;10.50;99.90;;;;;;5015812;28;20213;-81
2023/05/13 04:43:16;;;;;;;4.20;3.90;;;10.40;99.90;;;;;;5015001;28;20213;-81
2023/05/13 04:45:42;;;;;;;2.90;2.80;;;10.40;99.90;;;;;;5011732;28;20445;-81
2023/05/13 04:48:07;;;;;;;6.93;3.53;;;10.50;99.90;;;;;;5019407;28;20546;-81
2023/05/13 04:50:33;;;;;;;3.60;3.40;;;10.50;99.90;;;;;;5020494;28;20210;-81
2023/05/13 04:52:58;;;;;;;4.30;3.87;;;10.50;99.90;;;;;;4998731;28;20267;-81
2023/05/13 04:55:27;;;;;;;3.90;3.30;;;10.50;99.90;;;;;;5023279;28;20681;-81
2023/05/13 04:57:52;;;;;;;3.30;3.10;;;10.50;99.90;;;;;;4997270;28;20205;-81
2023/05/13 05:00:18;;;;;;;4.30;3.73;;;10.60;99.90;;;;;;5015430;28;20969;-81
2023/05/13 05:02:47;;;;;;;3.90;3.50;;;10.60;99.90;;;;;;5012283;28;20198;-81
2023/05/13 05:05:12;;;;;;;3.70;3.40;;;10.70;99.90;;;;;;5016133;28;20195;-81
2023/05/13 05:07:39;;;;;;;3.57;3.37;;;10.70;99.90;;;;;;5016161;28;20477;-81
2023/05/13 05:10:06;;;;;;;4.87;4.23;;;10.80;99.90;;;;;;4997248;28;20202;-81
2023/05/13 05:12:32;;;;;;;4.50;3.17;;;10.70;99.90;;;;;;5015452;28;20469;-81
2023/05/13 05:14:57;;;;;;;3.83;3.53;;;10.80;99.90;;;;;;5014056;28;20790;-81
2023/05/13 05:17:28;;;;;;;3.60;3.40;;;10.80;99.90;;;;;;5015596;28;20198;-81
2023/05/13 05:19:54;;;;;;;3.90;3.13;;;10.80;99.90;;;;;;5016496;28;20214;-81
2023/05/13 05:22:19;;;;;;;4.00;3.07;;;10.80;99.90;;;;;;5012152;28;20484;-81
2023/05/13 05:24:46;;;;;;;3.87;3.57;;;10.80;99.90;;;;;;4999269;28;20500;-80
2023/05/13 05:27:12;;;;;;;4.53;3.53;;;10.80;99.90;;;;;;5022378;28;20179;-79
2023/05/13 05:29:37;;;;;;;4.50;4.20;;;10.90;99.90;;;;;;5031645;28;20459;-80
2023/05/13 05:32:06;;;;;;;5.40;4.03;;;10.90;99.90;;;;;;5000032;28;20221;-80
2023/05/13 05:34:32;;;;;;;5.73;3.63;;;10.90;99.90;;;;;;5017195;28;20221;-80
2023/05/13 05:36:57;;;;;;;7.63;5.47;;;10.90;99.90;;;;;;5019135;28;20438;-79
2023/05/13 05:39:26;;;;;;;4.03;3.73;;;10.90;99.90;;;;;;5014903;28;20198;-80
2023/05/13 05:41:52;;;;;;;4.13;3.67;;;10.90;99.90;;;;;;5012260;28;20214;-81
2023/05/13 05:44:18;;;;;;;4.10;3.80;;;11.00;99.90;;;;;;5012888;28;20909;-80
2023/05/13 05:46:43;;;;;;;4.33;3.93;;;11.00;99.90;;;;;;5011155;28;20441;-80
2023/05/13 05:49:09;;;;;;;3.93;3.60;;;11.00;99.90;;;;;;5013646;28;20205;-82
2023/05/13 05:51:34;;;;;;;4.87;4.20;;;11.10;99.90;;;;;;5017235;28;20230;-82
2023/05/13 05:54:00;;;;;;;5.53;3.53;;;11.20;99.90;;;;;;5020564;28;20304;-82
2023/05/13 05:56:26;;;;;;;3.80;3.60;;;11.20;99.90;;;;;;5014702;28;20193;-83
2023/05/13 05:58:51;;;;;;;4.40;4.00;;;11.20;99.90;;;;;;5013471;28;20425;-83
2023/05/13 06:01:17;;;;;;;4.10;3.30;;;11.10;99.90;;;;;;5014865;28;20210;-83
2023/05/13 06:03:42;;;;;;;3.83;3.63;;;11.10;99.90;;;;;;5009853;28;20190;-79
2023/05/13 06:06:08;;;;;;;4.23;3.93;;;11.10;99.90;;;;;;4994518;28;20187;-80
2023/05/13 06:08:33;;;;;;;6.20;3.57;;;11.10;99.90;;;;;;5009283;28;20182;-79
2023/05/13 06:11:02;;;;;;;5.97;4.57;;;11.10;99.90;;;;;;4992041;28;20252;-79
2023/05/13 06:13:27;;;;;;;4.13;3.83;;;11.10;99.90;;;;;;5011080;28;20170;-80
2023/05/13 06:15:53;;;;;;;4.17;3.40;;;11.20;99.90;;;;;;4993126;28;20738;-79
2023/05/13 06:18:18;;;;;;;5.33;4.00;;;11.10;99.90;;;;;;5007162;28;20179;-79
2023/05/13 06:20:44;;;;;;;7.37;4.47;;;11.10;99.90;;;;;;5009106;28;20207;-79
2023/05/13 06:23:09;;;;;;;4.90;4.50;;;11.10;99.90;;;;;;5009417;28;20186;-80
2023/05/13 06:25:35;;;;;;;3.80;3.50;;;11.00;99.90;;;;;;5014974;28;20206;-79
2023/05/13 06:28:01;;;;;;;3.33;3.13;;;11.00;99.90;;;;;;5012754;28;20196;-79
2023/05/13 06:30:26;;;;;;;5.10;3.70;;;11.10;99.90;;;;;;5010425;28;20179;-79
2023/05/13 06:32:53;;;;;;;4.40;4.10;;;11.10;99.90;;;;;;5013195;28;20202;-80
2023/05/13 06:35:19;;;;;;;4.00;3.57;;;11.10;99.90;;;;;;5013591;28;20193;-80
2023/05/13 06:37:45;;;;;;;8.07;4.07;;;11.10;99.90;;;;;;5014596;28;20441;-80
2023/05/13 06:40:11;;;;;;;3.73;3.43;;;11.20;99.90;;;;;;5015657;28;20762;-79
2023/05/13 06:42:40;;;;;;;5.27;4.73;;;11.20;99.90;;;;;;5010563;28;20186;-79
2023/05/13 06:45:07;;;;;;;4.20;3.60;;;11.20;99.90;;;;;;5014481;28;20432;-80
2023/05/13 06:47:32;;;;;;;4.30;4.00;;;11.30;99.90;;;;;;5015673;28;20556;-79
2023/05/13 06:49:58;;;;;;;5.30;3.50;;;11.30;99.90;;;;;;4999635;28;20429;-79
2023/05/13 06:52:23;;;;;;;4.27;3.90;;;11.40;99.90;;;;;;5014729;28;20337;-79
2023/05/13 06:54:49;;;;;;;7.70;6.80;;;11.50;99.90;;;;;;5013518;28;20190;-79
2023/05/13 06:57:15;;;;;;;5.10;4.27;;;11.50;99.90;;;;;;5016758;28;20557;-79
2023/05/13 06:59:40;;;;;;;3.93;3.63;;;11.60;99.90;;;;;;5015245;28;20210;-80
2023/05/13 07:02:08;;;;;;;4.40;4.00;;;11.60;99.90;;;;;;5015601;28;20218;-80
2023/05/13 07:04:34;;;;;;;3.60;3.40;;;11.70;99.90;;;;;;5014465;28;20174;-79
2023/05/13 07:06:59;;;;;;;4.07;3.50;;;11.70;99.90;;;;;;5015187;28;20421;-79
2023/05/13 07:09:26;;;;;;;3.50;3.30;;;11.70;99.90;;;;;;5016889;28;20217;-79
2023/05/13 07:11:51;;;;;;;5.03;3.80;;;11.80;99.90;;;;;;5015520;28;20704;-80
2023/05/13 07:14:17;;;;;;;4.03;3.73;;;11.80;99.90;;;;;;5017398;28;20516;-80
2023/05/13 07:16:43;;;;;;;4.10;3.80;;;11.80;99.90;;;;;;5017413;28;20647;-79
2023/05/13 07:19:08;;;;;;;4.30;3.67;;;11.90;99.90;;;;;;5017643;28;20248;-80
2023/05/13 07:21:34;;;;;;;4.20;3.87;;;12.00;99.90;;;;;;5017116;28;20258;-80
2023/05/13 07:24:01;;;;;;;4.80;3.57;;;12.10;99.90;;;;;;5016158;28;20189;-80
2023/05/13 07:26:26;;;;;;;4.33;4.03;;;12.20;99.90;;;;;;4997748;28;20639;-79
2023/05/13 07:28:55;;;;;;;4.93;4.00;;;12.20;99.90;;;;;;5012707;28;20436;-80
2023/05/13 07:31:21;;;;;;;5.83;4.43;;;12.20;99.90;;;;;;5013688;28;20257;-79
2023/05/13 07:33:47;;;;;;;4.70;4.40;;;12.20;99.90;;;;;;5014514;28;21003;-79
2023/05/13 07:36:15;;;;;;;4.60;4.20;;;12.20;99.90;;;;;;5014595;28;20202;-79
2023/05/13 07:38:41;;;;;;;3.53;3.23;;;12.20;99.90;;;;;;4993566;28;20210;-79
2023/05/13 07:41:06;;;;;;;5.87;5.20;;;12.20;99.90;;;;;;4996185;28;20523;-79
2023/05/13 07:43:35;;;;;;;4.67;4.17;;;12.10;99.90;;;;;;5014308;28;20202;-79
2023/05/13 07:46:02;;;;;;;5.07;4.60;;;12.10;99.90;;;;;;5012020;28;20543;-78
2023/05/13 07:48:27;;;;;;;5.93;3.93;;;12.10;99.90;;;;;;5013012;28;20464;-79
2023/05/13 07:50:53;;;;;;;4.37;3.97;;;12.10;99.90;;;;;;5015999;28;20442;-79
2023/05/13 07:53:20;;;;;;;4.50;4.10;;;12.20;99.90;;;;;;5012792;28;20230;-79
2023/05/13 07:55:45;;;;;;;4.30;3.80;;;12.20;99.90;;;;;;5013432;28;20785;-79
2023/05/13 07:58:12;;;;;;;5.33;4.80;;;12.30;99.90;;;;;;5006908;28;20436;-80
2023/05/13 08:00:38;;;;;;;9.13;7.57;;;12.30;99.90;;;;;;5021671;28;20222;-79
2023/05/13 08:03:03;;;;;;;4.20;3.80;;;12.40;99.90;;;;;;5003038;28;20449;-79
2023/05/13 08:05:29;;;;;;;4.60;4.20;;;12.50;99.90;;;;;;5005462;28;20170;-85
2023/05/13 08:07:54;;;;;;;4.13;3.83;;;12.60;99.90;;;;;;5002388;28;20183;-80
2023/05/13 08:10:20;;;;;;;4.03;3.73;;;12.60;99.90;;;;;;5025177;28;20220;-80
2023/05/13 08:12:49;;;;;;;5.63;4.37;;;12.70;99.90;;;;;;5022608;28;20210;-79
2023/05/13 08:15:15;;;;;;;6.50;4.40;;;12.70;99.90;;;;;;5024272;28;20178;-79
2023/05/13 08:17:41;;;;;;;4.23;3.90;;;12.80;99.90;;;;;;5021153;28;20484;-80
2023/05/13 08:20:07;;;;;;;4.73;4.13;;;12.90;99.90;;;;;;5022812;28;20473;-79
2023/05/13 08:22:32;;;;;;;4.53;4.20;;;13.00;99.90;;;;;;5023041;28;20206;-80
2023/05/13 08:24:59;;;;;;;4.30;4.00;;;13.00;99.90;;;;;;5025875;28;20178;-80
2023/05/13 08:27:25;;;;;;;5.17;4.77;;;13.00;99.90;;;;;;5027393;28;20181;-80
2023/05/13 08:29:51;;;;;;;4.37;3.97;;;12.90;99.90;;;;;;5030536;28;20413;-80
2023/05/13 08:32:17;;;;;;;3.80;3.50;;;12.90;99.90;;;;;;5027810;28;20256;-81
2023/05/13 08:34:43;;;;;;;4.50;4.20;;;12.80;99.90;;;;;;5030581;28;20544;-81
2023/05/13 08:37:11;;;;;;;5.10;4.70;;;12.80;99.90;;;;;;5028435;28;20515;-82
2023/05/13 08:39:37;;;;;;;4.87;4.47;;;12.80;99.90;;;;;;5027738;28;20206;-81
2023/05/13 08:42:03;;;;;;;4.33;4.03;;;12.80;99.90;;;;;;5026738;28;20463;-83
2023/05/13 08:44:31;;;;;;;5.13;4.70;;;12.90;99.90;;;;;;5027117;28;20186;-83
2023/05/13 08:47:07;;;;;;;5.50;5.00;;;12.90;99.90;;;;;;5026035;28;20429;-82
2023/05/13 08:49:34;;;;;;;8.00;4.10;;;12.80;99.90;;;;;;5025977;28;20793;-79
2023/05/13 08:51:59;;;;;;;6.70;5.00;;;12.80;99.90;;;;;;5021921;28;20453;-79
2023/05/13 08:54:26;;;;;;;5.60;3.33;;;12.70;99.90;;;;;;5025654;28;20420;-79
2023/05/13 08:56:52;;;;;;;5.03;4.63;;;12.80;99.90;;;;;;5017733;28;20689;-80
2023/05/13 08:59:17;;;;;;;5.90;4.70;;;12.90;99.90;;;;;;5016597;28;20473;-80
2023/05/13 09:01:44;;;;;;;4.47;4.17;;;12.80;99.90;;;;;;5015087;28;20214;-80
2023/05/13 09:04:12;;;;;;;5.30;4.80;;;12.80;99.90;;;;;;5018219;28;20177;-81
2023/05/13 09:06:38;;;;;;;4.73;4.10;;;12.90;99.90;;;;;;5016598;28;20433;-81
2023/05/13 09:09:04;;;;;;;5.37;3.97;;;12.90;99.90;;;;;;5017264;28;20472;-81
2023/05/13 09:11:33;;;;;;;5.63;4.40;;;13.00;99.90;;;;;;5024000;28;20552;-81
2023/05/13 09:14:01;;;;;;;4.53;4.17;;;13.10;99.90;;;;;;5021932;28;20944;-80
2023/05/13 09:16:28;;;;;;;4.30;3.90;;;13.10;99.90;;;;;;5023419;28;20420;-80
2023/05/13 09:19:04;;;;;;;3.63;3.43;;;13.10;99.90;;;;;;5024694;28;20803;-81
2023/05/13 09:21:31;;;;;;;5.43;4.70;;;13.00;99.90;;;;;;5024885;28;20451;-81
2023/05/13 09:24:08;;;;;;;4.93;4.50;;;13.10;99.90;;;;;;5024213;28;20493;-81
2023/05/13 09:26:33;;;;;;;4.57;4.10;;;13.20;99.90;;;;;;5025349;28;20413;-80
2023/05/13 09:29:15;;;;;;;4.37;4.07;;;13.30;99.90;;;;;;5026777;28;20419;-83
2023/05/13 09:31:40;;;;;;;4.63;4.23;;;13.50;99.90;;;;;;5024988;28;20213;-80
2023/05/13 09:34:06;;;;;;;4.80;3.70;;;13.60;99.90;;;;;;5025082;28;20433;-80
2023/05/13 09:36:32;;;;;;;4.40;4.13;;;13.70;99.90;;;;;;5025669;28;20239;-80
2023/05/13 09:39:01;;;;;;;6.93;3.43;;;13.90;99.90;;;;;;5024541;28;20226;-80
2023/05/13 09:41:29;;;;;;;4.80;4.17;;;14.10;99.90;;;;;;5007204;28;20466;-79
2023/05/13 09:43:55;;;;;;;4.40;4.10;;;14.20;99.90;;;;;;5010684;28;20434;-79
2023/05/13 09:46:20;;;;;;;5.47;4.57;;;14.30;99.90;;;;;;5008413;28;20440;-79
2023/05/13 09:48:46;;;;;;;4.47;4.03;;;14.50;99.90;;;;;;5014027;28;20706;-79
2023/05/13 09:51:13;;;;;;;4.07;3.13;;;14.50;99.90;;;;;;4997042;28;20289;-79
2023/05/13 09:53:45;;;;;;;5.80;3.87;;;14.40;99.90;;;;;;5018347;28;20657;-79
2023/05/13 09:56:11;;;;;;;6.63;3.60;;;14.30;99.90;;;;;;5014671;28;20464;-79
2023/05/13 09:58:37;;;;;;;4.20;3.80;;;14.20;99.90;;;;;;4997673;28;20765;-79
2023/05/13 10:01:03;;;;;;;3.23;3.03;;;14.10;99.90;;;;;;5016140;28;20213;-79
2023/05/13 10:03:30;;;;;;;5.10;4.60;;;14.20;99.90;;;;;;5014197;28;20179;-79
2023/05/13 10:05:57;;;;;;;4.57;4.27;;;14.30;99.90;;;;;;4996696;28;20433;-79
2023/05/13 10:08:23;;;;;;;3.60;3.40;;;14.20;99.90;;;;;;5014810;28;20831;-79
2023/05/13 10:10:53;;;;;;;3.90;3.60;;;14.30;99.90;;;;;;5014881;28;20480;-79
2023/05/13 10:13:22;;;;;;;3.27;3.07;;;14.30;99.90;;;;;;4996664;28;20917;-79
2023/05/13 10:15:50;;;;;;;3.63;3.33;;;14.40;99.90;;;;;;4998006;28;20483;-79
2023/05/13 10:18:18;;;;;;;4.70;4.30;;;14.40;99.90;;;;;;4998073;28;20489;-80
2023/05/13 10:20:45;;;;;;;4.77;4.23;;;14.40;99.90;;;;;;5014471;28;20464;-79
2023/05/13 10:23:12;;;;;;;4.80;3.43;;;14.50;99.90;;;;;;5005280;28;20429;-79
2023/05/13 10:25:43;;;;;;;4.10;3.37;;;14.50;99.90;;;;;;4998310;28;20437;-80
2023/05/13 10:28:13;;;;;;;4.00;3.50;;;14.50;99.90;;;;;;5000379;28;20456;-79
2023/05/13 10:30:46;;;;;;;3.67;3.37;;;14.50;99.90;;;;;;5018510;28;20441;-81
2023/05/13 10:33:20;;;;;;;4.80;4.17;;;14.60;99.90;;;;;;4996415;28;20429;-80
2023/05/13 10:36:05;;;;;;;3.70;3.30;;;14.40;99.90;;;;;;5001772;28;20440;-81
2023/05/13 10:39:01;;;;;;;4.30;4.00;;;14.50;99.90;;;;;;5003814;28;20425;-79
2023/05/13 10:41:47;;;;;;;4.67;4.27;;;14.50;99.90;;;;;;5029372;28;20433;-79
2023/05/13 10:44:13;;;;;;;4.90;4.50;;;14.50;99.90;;;;;;5014503;28;20414;-79
2023/05/13 10:47:10;;;;;;;4.63;4.23;;;14.60;99.90;;;;;;5001537;28;20409;-79
2023/05/13 10:49:38;;;;;;;4.57;4.27;;;14.70;99.90;;;;;;4971347;28;20513;-78
2023/05/13 10:52:06;;;;;;;3.77;3.57;;;14.80;99.90;;;;;;5017683;28;20493;-79
2023/05/13 10:54:40;;;;;;;3.80;3.50;;;14.70;99.90;;;;;;5010640;28;20425;-79
2023/05/13 10:57:07;;;;;;;6.23;4.00;;;14.70;99.90;;;;;;5024446;28;20565;-79
2023/05/13 10:59:36;;;;;;;3.40;3.17;;;14.60;99.90;;;;;;5023708;28;20464;-80
2023/05/13 11:02:23;;;;;;;3.70;3.40;;;14.70;99.90;;;;;;5024194;28;20441;-79
2023/05/13 11:04:59;;;;;;;4.50;4.10;;;14.70;99.90;;;;;;4997064;28;20422;-79
2023/05/13 11:07:28;;;;;;;3.97;3.70;;;14.60;99.90;;;;;;5020972;28;20421;-79
2023/05/13 11:09:53;;;;;;;5.37;3.93;;;14.60;99.90;;;;;;5017828;28;20890;-80
2023/05/13 11:12:19;;;;;;;4.30;4.00;;;14.60;99.90;;;;;;5018564;28;20532;-80
2023/05/13 11:14:45;;;;;;;4.33;4.00;;;14.40;99.90;;;;;;5019386;28;20194;-80
2023/05/13 11:17:11;;;;;;;4.90;4.47;;;14.40;99.90;;;;;;5026538;28;20602;-80
2023/05/13 11:19:44;;;;;;;4.40;4.10;;;14.40;99.90;;;;;;5018886;28;20233;-80
2023/05/13 11:22:17;;;;;;;5.70;4.10;;;14.50;99.90;;;;;;5018625;28;20474;-79
2023/05/13 11:25:07;;;;;;;4.40;4.00;;;14.60;99.90;;;;;;5018837;28;20502;-80
2023/05/13 11:27:41;;;;;;;3.80;3.50;;;15.00;99.90;;;;;;5018496;28;20682;-80
2023/05/13 11:30:19;;;;;;;4.23;3.73;;;15.20;99.90;;;;;;5017704;28;20475;-80
2023/05/13 11:32:51;;;;;;;4.17;3.87;;;15.40;99.90;;;;;;5017601;28;20675;-79
2023/05/13 11:35:27;;;;;;;4.90;4.50;;;15.50;99.90;;;;;;5008275;28;20421;-79
2023/05/13 11:37:54;;;;;;;4.13;3.10;;;15.30;99.90;;;;;;5017528;28;20448;-79
2023/05/13 11:40:22;;;;;;;5.10;4.13;;;15.20;99.90;;;;;;5033011;28;20456;-80
2023/05/13 11:42:48;;;;;;;3.53;3.33;;;15.00;99.90;;;;;;5006887;28;20440;-80
2023/05/13 11:45:16;;;;;;;3.70;3.40;;;14.80;99.90;;;;;;5002442;28;20438;-80
2023/05/13 11:47:46;;;;;;;3.50;3.30;;;14.90;99.90;;;;;;5018809;28;20971;-77
2023/05/13 11:50:25;;;;;;;5.00;3.93;;;14.80;99.90;;;;;;5033322;28;20428;-78
2023/05/13 11:53:01;;;;;;;4.50;4.10;;;14.90;99.90;;;;;;5006463;28;20407;-79
2023/05/13 11:56:02;;;;;;;4.20;3.90;;;15.00;99.90;;;;;;4969832;28;20226;-80
2023/05/13 11:58:28;;;;;;;7.70;3.73;;;15.10;99.90;;;;;;4907810;28;20425;-79
2023/05/13 12:00:54;;;;;;;3.70;2.73;;;15.40;99.90;;;;;;5020007;28;20496;-78
2023/05/13 12:03:19;;;;;;;3.93;3.73;;;15.60;99.90;;;;;;5002614;28;20817;-79
2023/05/13 12:05:46;;;;;;;2.80;2.60;;;15.90;99.90;;;;;;5021363;28;20186;-78
2023/05/13 12:08:12;;;;;;;3.50;2.97;;;16.10;99.90;;;;;;5005936;28;20558;-78
2023/05/13 12:10:44;;;;;;;3.40;3.10;;;16.00;99.90;;;;;;5024323;28;20536;-79
2023/05/13 12:13:11;;;;;;;3.57;3.27;;;15.80;99.90;;;;;;5007390;28;20441;-79
2023/05/13 12:15:37;;;;;;;3.50;3.17;;;15.80;99.90;;;;;;5024084;28;20521;-80
2023/05/13 12:18:04;;;;;;;5.17;3.20;;;15.80;99.90;;;;;;5002132;28;20896;-79
2023/05/13 12:20:30;;;;;;;3.53;3.27;;;15.70;99.90;;;;;;5008828;28;20467;-79
2023/05/13 12:22:56;;;;;;;7.40;3.23;;;15.60;99.90;;;;;;5013899;28;20425;-78
2023/05/13 12:25:35;;;;;;;4.50;3.23;;;15.50;99.90;;;;;;5029705;28;20484;-78
2023/05/13 12:28:22;;;;;;;3.20;3.00;;;15.60;99.90;;;;;;5022263;28;20422;-78
2023/05/13 12:31:02;;;;;;;3.63;3.33;;;15.60;99.90;;;;;;5005405;28;20527;-79
2023/05/13 12:33:42;;;;;;;3.90;3.58;;;15.60;99.90;;;;;;5003808;28;20458;-79
2023/05/13 12:37:09;;;;;;;3.70;3.50;;;15.60;99.90;;;;;;4981411;28;20197;-80
2023/05/13 12:39:20;;;;;;;4.90;4.50;;;15.60;99.90;;;;;;4944920;28;20433;-78
2023/05/13 12:41:53;;;;;;;5.70;5.03;;;15.60;99.90;;;;;;5014211;28;20833;-79
2023/05/13 12:44:20;;;;;;;3.77;3.47;;;15.50;99.90;;;;;;5014010;28;20559;-79
2023/05/13 12:46:54;;;;;;;7.30;4.17;;;15.50;99.90;;;;;;5028549;28;20916;-79
2023/05/13 12:49:21;;;;;;;4.63;4.23;;;15.50;99.90;;;;;;5002194;28;20929;-79
2023/05/13 12:51:47;;;;;;;4.40;4.00;;;15.40;99.90;;;;;;4985079;28;20517;-79
2023/05/13 12:54:13;;;;;;;6.67;3.93;;;15.40;99.90;;;;;;5021590;28;20409;-78
2023/05/13 12:56:39;;;;;;;8.33;5.83;;;15.50;99.90;;;;;;5029616;28;20405;-79
2023/05/13 12:59:05;;;;;;;5.73;5.13;;;15.80;99.90;;;;;;5021585;28;20410;-78
2023/05/13 13:01:32;;;;;;;6.90;4.80;;;16.00;99.90;;;;;;5021281;28;20469;-79
2023/05/13 13:03:58;;;;;;;4.03;3.73;;;16.10;99.90;;;;;;5020217;28;20413;-79
2023/05/13 13:06:24;;;;;;;5.57;4.37;;;16.30;99.90;;;;;;5020383;28;20504;-79
2023/05/13 13:08:53;;;;;;;4.00;3.70;;;16.50;99.90;;;;;;5009924;28;20436;-78
2023/05/13 13:11:20;;;;;;;3.40;3.30;;;16.50;99.90;;;;;;5030265;28;20476;-79
2023/05/13 13:13:48;;;;;;;3.70;3.33;;;16.70;99.90;;;;;;5027787;28;20508;-80
2023/05/13 13:16:14;;;;;;;3.80;3.50;;;17.20;99.90;;;;;;4993447;28;20521;-79
2023/05/13 13:18:40;;;;;;;3.43;3.03;;;17.40;99.90;;;;;;5033257;28;20452;-77
2023/05/13 13:21:06;;;;;;;3.70;3.40;;;17.30;99.90;;;;;;5018066;28;20206;-77
2023/05/13 13:23:35;;;;;;;4.23;3.93;;;17.20;99.90;;;;;;5000369;28;20428;-77
2023/05/13 13:26:00;;;;;;;3.80;3.03;;;17.00;99.90;;;;;;5022582;28;20389;-77
2023/05/13 13:28:26;;;;;;;3.57;3.30;;;17.00;99.90;;;;;;5013369;28;20467;-77
2023/05/13 13:30:52;;;;;;;3.57;3.27;;;17.00;99.90;;;;;;5013583;28;20217;-77
2023/05/13 13:33:18;;;;;;;3.93;3.63;;;16.80;99.90;;;;;;4995743;28;20410;-77
2023/05/13 13:35:45;;;;;;;6.03;3.60;;;16.80;99.90;;;;;;5013500;28;20548;-77
2023/05/13 13:38:11;;;;;;;4.00;3.80;;;16.60;99.90;;;;;;5013178;28;20421;-78
2023/05/13 13:40:37;;;;;;;3.40;3.13;;;16.60;99.90;;;;;;5012674;28;20850;-78
2023/05/13 13:43:06;;;;;;;4.00;3.80;;;16.50;99.90;;;;;;5012811;28;20426;-77
2023/05/13 13:45:31;;;;;;;4.70;4.30;;;16.30;99.90;;;;;;4995136;28;20615;-77
2023/05/13 13:47:58;;;;;;;5.80;4.27;;;16.30;99.90;;;;;;5020661;28;20453;-77
2023/05/13 13:50:24;;;;;;;4.07;3.77;;;16.20;99.90;;;;;;5012892;28;20182;-79
2023/05/13 13:52:51;;;;;;;4.10;3.80;;;16.30;99.90;;;;;;5012440;28;20556;-78
2023/05/13 13:55:18;;;;;;;4.87;4.23;;;16.30;99.90;;;;;;5013634;28;20449;-78
2023/05/13 13:57:44;;;;;;;4.70;4.30;;;16.40;99.90;;;;;;5013269;28;20422;-78
2023/05/13 14:00:10;;;;;;;4.43;4.13;;;16.50;99.90;;;;;;5013575;28;20468;-78
2023/05/13 14:02:36;;;;;;;4.07;3.77;;;16.70;99.90;;;;;;5020057;28;20424;-78
2023/05/13 14:05:02;;;;;;;6.43;4.60;;;16.80;99.90;;;;;;5014458;28;20823;-79
2023/05/13 14:07:30;;;;;;;4.20;3.90;;;17.00;99.90;;;;;;5006153;28;20187;-79
2023/05/13 14:09:56;;;;;;;4.40;4.10;;;17.10;99.90;;;;;;5022734;28;20194;-79
2023/05/13 14:12:21;;;;;;;3.50;3.30;;;17.30;99.90;;;;;;5013908;28;20566;-81
2023/05/13 14:14:50;;;;;;;7.60;3.30;;;17.40;99.90;;;;;;5014314;28;20636;-80
2023/05/13 14:17:16;;;;;;;4.07;3.67;;;17.50;99.90;;;;;;4995962;28;20202;-80
2023/05/13 14:19:41;;;;;;;4.13;3.87;;;17.60;99.90;;;;;;5015474;28;20469;-80